Time;durP1;ratioP1;P1;durP2;ratioP2;P2;SDS_P1;SDS_P2;PMS_P1;PMS_P2;Temp;Humidity;BMP_temperature;BMP_pressure;BME280_temperature;BME280_humidity;BME280_pressure;Samples;Min_cycle;Max_cycle;Signal;HPM_P1;HPM_P2
2023/09/29 00:02:14;;;;;;;26.88;16.20;;;;;;;12.66;100.00;100870.22;4947037;29;20540;-61
2023/09/29 00:04:41;;;;;;;21.33;15.82;;;;;;;12.61;100.00;100877.94;4946260;29;20048;-63
2023/09/29 00:07:08;;;;;;;25.88;16.00;;;;;;;12.47;100.00;100840.97;4945393;29;20424;-62
2023/09/29 00:09:34;;;;;;;25.10;16.30;;;;;;;12.47;100.00;100854.41;4946047;29;20120;-62
2023/09/29 00:12:01;;;;;;;21.58;15.60;;;;;;;12.43;100.00;100845.00;4946740;29;20047;-64
2023/09/29 00:14:28;;;;;;;29.50;16.02;;;;;;;12.34;100.00;100839.59;4941340;29;20083;-70
2023/09/29 00:16:55;;;;;;;28.05;16.90;;;;;;;12.20;100.00;100808.00;4935811;29;20047;-71
2023/09/29 00:19:22;;;;;;;31.45;17.02;;;;;;;11.93;100.00;100783.16;4935467;29;20613;-69
2023/09/29 00:21:49;;;;;;;32.10;15.93;;;;;;;11.87;100.00;100773.06;4935532;29;20040;-70
2023/09/29 00:24:16;;;;;;;26.58;17.95;;;;;;;11.92;100.00;100777.94;4935352;29;20055;-69
2023/09/29 00:26:42;;;;;;;31.48;17.90;;;;;;;11.87;100.00;100777.59;4936065;29;20189;-70
2023/09/29 00:29:09;;;;;;;24.30;17.38;;;;;;;11.73;100.00;100771.03;4935410;28;20110;-70
2023/09/29 00:31:35;;;;;;;24.08;17.17;;;;;;;11.44;100.00;100723.94;4935583;29;20429;-70
2023/09/29 00:34:02;;;;;;;25.92;17.83;;;;;;;11.24;100.00;100701.09;4935414;29;20048;-71
2023/09/29 00:36:29;;;;;;;28.65;18.00;;;;;;;11.38;100.00;100718.41;4935282;29;20071;-70
2023/09/29 00:38:55;;;;;;;30.45;18.63;;;;;;;11.55;100.00;100749.66;4935141;29;20048;-71
2023/09/29 00:41:22;;;;;;;26.55;18.10;;;;;;;11.49;100.00;100741.44;4935022;29;20051;-74
2023/09/29 00:43:50;;;;;;;26.27;18.30;;;;;;;11.65;100.00;100765.63;4935103;28;20390;-68
2023/09/29 00:46:17;;;;;;;26.38;19.00;;;;;;;11.85;100.00;100791.19;4935199;29;20052;-70
2023/09/29 00:48:43;;;;;;;26.13;20.45;;;;;;;12.19;100.00;100835.94;4935083;29;20061;-68
2023/09/29 00:51:10;;;;;;;30.92;20.75;;;;;;;12.35;100.00;100851.25;4934205;29;20123;-70
2023/09/29 00:53:38;;;;;;;27.25;21.60;;;;;;;12.40;100.00;100859.63;4934678;29;20047;-69
2023/09/29 00:56:06;;;;;;;30.80;19.35;;;;;;;12.37;100.00;100854.59;4934369;29;20047;-71
2023/09/29 00:58:33;;;;;;;27.50;19.65;;;;;;;12.30;100.00;100832.88;4935022;29;20106;-69
2023/09/29 01:01:00;;;;;;;42.70;27.38;;;;;;;12.21;100.00;100823.16;4934831;28;20471;-71
2023/09/29 01:03:28;;;;;;;34.35;21.27;;;;;;;12.23;100.00;100822.97;4934536;29;20508;-70
2023/09/29 01:09:41;;;;;;;24.30;19.23;;;;;;;12.26;100.00;100820.78;4932715;29;20157;-69
2023/09/29 01:12:10;;;;;;;34.13;21.05;;;;;;;12.17;100.00;100827.16;4933964;29;20047;-70
2023/09/29 01:14:36;;;;;;;25.38;19.73;;;;;;;12.00;100.00;100818.25;4933497;29;20048;-70
2023/09/29 01:17:05;;;;;;;29.60;18.85;;;;;;;11.65;100.00;100779.06;4932953;29;20050;-69
2023/09/29 01:19:35;;;;;;;27.70;19.10;;;;;;;10.87;100.00;100672.81;4945530;28;20058;-70
2023/09/29 01:22:03;;;;;;;28.00;19.30;;;;;;;10.83;100.00;100676.84;4951128;28;20433;-71
2023/09/29 01:24:32;;;;;;;28.08;18.60;;;;;;;10.79;100.00;100669.25;4951234;28;20047;-71
2023/09/29 01:26:59;;;;;;;26.88;17.80;;;;;;;10.88;100.00;100690.59;4951276;28;20051;-69
2023/09/29 01:29:26;;;;;;;26.42;18.02;;;;;;;10.79;100.00;100686.22;4952437;28;20058;-70
2023/09/29 01:31:52;;;;;;;27.88;18.52;;;;;;;10.78;100.00;100679.16;4951803;28;20046;-71
2023/09/29 01:34:19;;;;;;;23.67;17.67;;;;;;;10.94;100.00;100700.69;4951984;28;20499;-70
2023/09/29 01:36:48;;;;;;;22.63;17.42;;;;;;;10.78;100.00;100684.53;4951790;28;20114;-70
2023/09/29 01:39:15;;;;;;;32.70;17.63;;;;;;;10.88;100.00;100701.31;4951778;28;20472;-69
2023/09/29 01:41:43;;;;;;;27.50;18.08;;;;;;;11.11;100.00;100730.28;4951814;28;20044;-71
2023/09/29 01:44:10;;;;;;;26.58;16.92;;;;;;;11.44;100.00;100774.16;4952728;28;20047;-70
2023/09/29 01:46:39;;;;;;;24.30;16.67;;;;;;;11.65;100.00;100811.28;4951964;28;20105;-71
2023/09/29 01:49:06;;;;;;;28.83;16.75;;;;;;;11.76;100.00;100829.84;4951611;28;20051;-70
2023/09/29 01:51:33;;;;;;;25.38;16.63;;;;;;;11.76;100.00;100835.22;4951472;28;20459;-68
2023/09/29 01:53:59;;;;;;;27.73;16.67;;;;;;;11.82;100.00;100831.00;4950726;28;20076;-70
2023/09/29 01:56:26;;;;;;;26.80;16.08;;;;;;;11.83;100.00;100833.56;4951957;28;20047;-69
2023/09/29 01:58:52;;;;;;;22.60;14.65;;;;;;;11.92;100.00;100854.03;4951699;28;20054;-69
2023/09/29 02:01:19;;;;;;;19.50;13.00;;;;;;;11.96;100.00;100861.78;4952334;28;20062;-70
2023/09/29 02:03:48;;;;;;;29.23;13.80;;;;;;;12.03;100.00;100878.94;4950530;28;20085;-70
2023/09/29 02:06:15;;;;;;;18.27;12.80;;;;;;;12.09;100.00;100900.63;4951327;28;20058;-69
2023/09/29 02:08:42;;;;;;;20.83;12.82;;;;;;;12.06;100.00;100900.13;4951058;28;20047;-70
2023/09/29 02:11:09;;;;;;;21.67;12.52;;;;;;;12.08;100.00;100901.63;4952148;28;20055;-70
2023/09/29 02:13:38;;;;;;;23.88;14.27;;;;;;;12.10;100.00;100898.78;4951204;28;20047;-70
2023/09/29 02:16:15;;;;;;;21.08;14.38;;;;;;;12.04;100.00;100897.59;4952101;28;20080;-70
2023/09/29 02:18:42;;;;;;;29.65;14.23;;;;;;;12.03;100.00;100885.16;4950993;28;20063;-62
2023/09/29 02:21:19;;;;;;;28.92;14.05;;;;;;;12.05;100.00;100885.00;4944009;29;20051;-62
2023/09/29 02:23:46;;;;;;;27.20;14.90;;;;;;;11.99;100.00;100877.59;4942905;29;20047;-62
2023/09/29 02:26:13;;;;;;;27.08;15.68;;;;;;;11.92;100.00;100866.66;4943895;29;20072;-62
2023/09/29 02:28:40;;;;;;;25.88;15.07;;;;;;;11.79;100.00;100856.38;4943661;29;20428;-62
2023/09/29 02:31:13;;;;;;;23.45;15.32;;;;;;;11.73;100.00;100840.09;4942970;29;20047;-62
2023/09/29 02:33:40;;;;;;;26.58;15.65;;;;;;;11.73;100.00;100840.09;4944595;29;20103;-61
2023/09/29 02:36:08;;;;;;;31.10;15.52;;;;;;;11.53;100.00;100807.25;4947516;29;20047;-62
2023/09/29 02:38:36;;;;;;;25.45;16.05;;;;;;;11.39;100.00;100779.19;4946707;29;20044;-61
2023/09/29 02:41:03;;;;;;;26.52;16.40;;;;;;;11.45;100.00;100790.13;4946663;29;20052;-62
2023/09/29 02:43:30;;;;;;;22.25;14.95;;;;;;;11.44;100.00;100788.41;4946688;29;20107;-62
2023/09/29 02:45:57;;;;;;;25.85;15.80;;;;;;;11.62;100.00;100817.00;4946057;29;20420;-61
2023/09/29 02:48:23;;;;;;;18.75;15.57;;;;;;;11.58;100.00;100823.72;4945464;29;20100;-61
2023/09/29 02:50:50;;;;;;;21.35;15.77;;;;;;;11.49;100.00;100822.03;4946862;29;20051;-61
2023/09/29 02:53:17;;;;;;;21.85;15.43;;;;;;;11.23;100.00;100791.53;4946879;29;20043;-60
2023/09/29 02:55:45;;;;;;;24.13;16.90;;;;;;;10.95;100.00;100745.31;4946680;29;20047;-62
2023/09/29 02:58:12;;;;;;;27.00;17.60;;;;;;;10.63;100.00;100697.72;4946805;29;20134;-62
2023/09/29 03:00:39;;;;;;;27.52;17.92;;;;;;;10.31;100.00;100655.47;4946694;29;20448;-61
2023/09/29 03:03:06;;;;;;;26.67;17.63;;;;;;;10.17;100.00;100632.78;4947549;29;20485;-62
2023/09/29 03:05:34;;;;;;;30.98;19.85;;;;;;;10.03;100.00;100626.16;4946127;29;20143;-63
2023/09/29 03:08:01;;;;;;;30.88;19.98;;;;;;;9.72;100.00;100579.44;4946050;29;21385;-63
2023/09/29 03:10:28;;;;;;;27.48;18.92;;;;;;;9.43;100.00;100532.34;4946868;29;20468;-62
2023/09/29 03:12:56;;;;;;;33.47;19.90;;;;;;;9.46;100.00;100534.72;4946632;29;20047;-62
2023/09/29 03:15:25;;;;;;;29.00;20.10;;;;;;;9.45;100.00;100541.09;4946275;29;20111;-62
2023/09/29 03:17:55;;;;;;;30.45;20.15;;;;;;;8.85;100.00;100449.97;4947556;29;20066;-62
2023/09/29 03:20:25;;;;;;;30.65;20.02;;;;;;;9.12;100.00;100504.34;4928837;29;20052;-63
2023/09/29 03:22:52;;;;;;;29.45;20.20;;;;;;;9.29;100.00;100527.59;4927312;29;20281;-61
2023/09/29 03:25:20;;;;;;;27.13;19.88;;;;;;;9.26;100.00;100525.22;4927676;29;20513;-61
2023/09/29 03:27:48;;;;;;;33.85;20.85;;;;;;;9.82;100.00;100601.59;4928687;29;20139;-60
2023/09/29 03:30:15;;;;;;;34.15;21.20;;;;;;;9.86;100.00;100637.78;4927848;29;20080;-62
2023/09/29 03:32:43;;;;;;;27.27;20.33;;;;;;;9.71;100.00;100610.72;4927783;29;20051;-63
2023/09/29 03:35:10;;;;;;;30.98;20.08;;;;;;;9.64;100.00;100600.78;4928607;29;20048;-61
2023/09/29 03:37:39;;;;;;;28.95;20.75;;;;;;;9.55;100.00;100595.38;4929146;29;20048;-61
2023/09/29 03:40:09;;;;;;;23.52;18.95;;;;;;;9.61;100.00;100614.50;4928864;29;20105;-62
2023/09/29 03:42:37;;;;;;;25.77;20.58;;;;;;;9.63;100.00;100601.78;4929531;28;20048;-63
2023/09/29 03:45:05;;;;;;;26.15;19.20;;;;;;;9.59;100.00;100608.47;4928365;29;20048;-62
2023/09/29 03:47:33;;;;;;;32.53;19.45;;;;;;;9.13;100.00;100538.13;4928903;29;20130;-63
2023/09/29 03:50:02;;;;;;;25.90;18.90;;;;;;;9.16;100.00;100541.38;4928942;29;21790;-61
2023/09/29 03:52:32;;;;;;;37.17;19.17;;;;;;;9.19;100.00;100565.13;4929534;29;20052;-61
2023/09/29 03:54:58;;;;;;;30.92;18.63;;;;;;;9.51;100.00;100607.41;4929139;29;20068;-61
2023/09/29 03:57:25;;;;;;;28.30;18.08;;;;;;;9.70;100.00;100641.19;4927708;29;20048;-60
2023/09/29 03:59:52;;;;;;;28.50;18.50;;;;;;;9.79;100.00;100644.78;4928529;29;20059;-62
2023/09/29 04:02:20;;;;;;;23.17;17.73;;;;;;;9.75;100.00;100646.06;4929324;29;20056;-61
2023/09/29 04:04:47;;;;;;;28.15;18.40;;;;;;;9.83;100.00;100670.25;4929591;29;20102;-61
2023/09/29 04:07:17;;;;;;;31.92;18.85;;;;;;;9.82;100.00;100671.25;4928880;29;20104;-63
2023/09/29 04:09:44;;;;;;;29.65;19.38;;;;;;;9.29;100.00;100605.22;4929406;29;20052;-62
2023/09/29 04:12:11;;;;;;;24.65;17.67;;;;;;;8.90;100.00;100546.66;4929635;29;20049;-62
2023/09/29 04:14:38;;;;;;;30.90;19.33;;;;;;;8.69;100.00;100527.41;4929443;29;20084;-62
2023/09/29 04:17:04;;;;;;;28.15;19.85;;;;;;;9.03;100.00;100568.50;4928079;29;20048;-63
2023/09/29 04:19:32;;;;;;;30.98;19.50;;;;;;;8.87;100.00;100551.47;4952502;28;20111;-63
2023/09/29 04:21:59;;;;;;;29.92;20.35;;;;;;;7.75;100.00;100383.44;4965623;28;20054;-61
2023/09/29 04:24:27;;;;;;;27.92;19.27;;;;;;;7.99;100.00;100409.59;4965246;28;20047;-62
2023/09/29 04:26:53;;;;;;;28.13;19.55;;;;;;;8.43;100.00;100493.38;4966206;28;20051;-62
2023/09/29 04:29:20;;;;;;;31.23;21.17;;;;;;;7.94;100.00;100426.06;4965660;28;20061;-62
2023/09/29 04:31:47;;;;;;;34.78;21.58;;;;;;;7.65;100.00;100387.00;4966532;28;20702;-61
2023/09/29 04:34:13;;;;;;;30.90;20.42;;;;;;;8.16;100.00;100456.88;4965445;28;20087;-62
2023/09/29 04:36:41;;;;;;;31.13;20.40;;;;;;;8.18;100.00;100460.22;4964900;28;20058;-62
2023/09/29 04:39:08;;;;;;;29.73;19.67;;;;;;;8.13;100.00;100454.50;4965215;28;20047;-61
2023/09/29 04:41:35;;;;;;;29.70;19.40;;;;;;;7.54;100.00;100371.19;4964988;28;20074;-62
2023/09/29 04:44:05;;;;;;;28.25;19.10;;;;;;;7.52;100.00;100357.13;4964753;28;20558;-62
2023/09/29 04:46:33;;;;;;;28.98;18.77;;;;;;;7.55;100.00;100356.84;4964766;28;20051;-61
2023/09/29 04:49:03;;;;;;;29.45;19.90;;;;;;;6.99;100.00;100267.13;4964459;28;20085;-62
2023/09/29 04:51:32;;;;;;;30.48;19.65;;;;;;;6.36;100.00;100165.72;4964712;28;20066;-62
2023/09/29 04:54:00;;;;;;;24.70;19.13;;;;;;;6.24;100.00;100143.69;4965322;28;20526;-63
2023/09/29 04:56:26;;;;;;;33.10;19.92;;;;;;;6.15;100.00;100141.94;4963984;28;20067;-61
2023/09/29 04:58:54;;;;;;;31.73;18.73;;;;;;;6.03;100.00;100121.78;4964802;28;20099;-61
2023/09/29 05:01:21;;;;;;;33.17;19.60;;;;;;;5.86;100.00;100104.72;4964790;28;20130;-61
2023/09/29 05:03:47;;;;;;;26.50;18.67;;;;;;;6.55;100.00;100224.25;4965597;28;20054;-61
2023/09/29 05:06:14;;;;;;;24.73;18.17;;;;;;;6.76;100.00;100268.50;4965905;28;20399;-62
2023/09/29 05:08:41;;;;;;;31.90;18.15;;;;;;;6.89;100.00;100275.19;4966638;28;20039;-65
2023/09/29 05:11:07;;;;;;;29.05;17.73;;;;;;;7.39;100.00;100351.31;4965274;28;20043;-62
2023/09/29 05:13:34;;;;;;;26.33;16.38;;;;;;;7.24;100.00;100316.28;4965624;28;20043;-62
2023/09/29 05:16:01;;;;;;;24.25;16.95;;;;;;;7.74;100.00;100403.09;4965970;28;22309;-61
2023/09/29 05:18:28;;;;;;;24.88;16.08;;;;;;;8.18;100.00;100478.09;4962746;28;20424;-62
2023/09/29 05:20:54;;;;;;;31.17;16.30;;;;;;;8.33;100.00;100505.97;4946366;29;20572;-62
2023/09/29 05:23:21;;;;;;;25.92;15.50;;;;;;;8.20;100.00;100495.66;4946398;29;20111;-62
2023/09/29 05:25:47;;;;;;;24.70;16.20;;;;;;;7.71;100.00;100436.31;4946980;29;20051;-62
2023/09/29 05:28:14;;;;;;;22.10;14.73;;;;;;;7.06;100.00;100337.56;4946181;29;20118;-63
2023/09/29 05:30:53;;;;;;;26.27;15.75;;;;;;;7.28;100.00;100360.34;4948528;29;20075;-61
2023/09/29 05:33:20;;;;;;;33.47;15.43;;;;;;;6.85;100.00;100294.28;4947034;29;20119;-61
2023/09/29 05:35:47;;;;;;;25.50;15.63;;;;;;;6.25;100.00;100203.97;4947772;29;20519;-61
2023/09/29 05:38:13;;;;;;;31.52;15.88;;;;;;;6.04;100.00;100174.03;4946710;29;20162;-61
2023/09/29 05:40:40;;;;;;;24.95;15.85;;;;;;;6.26;100.00;100194.22;4945707;29;20059;-61
2023/09/29 05:43:10;;;;;;;20.88;14.77;;;;;;;7.13;100.00;100313.81;4944571;29;20059;-61
2023/09/29 05:45:40;;;;;;;29.10;15.68;;;;;;;7.68;100.00;100414.41;4943598;29;20051;-61
2023/09/29 05:48:07;;;;;;;21.45;15.20;;;;;;;7.61;100.00;100406.97;4944005;29;20053;-63
2023/09/29 05:50:33;;;;;;;29.88;14.13;;;;;;;8.16;100.00;100472.03;4943106;29;20154;-64
2023/09/29 05:53:00;;;;;;;24.42;14.10;;;;;;;8.80;100.00;100564.59;4943019;29;20059;-64
2023/09/29 05:55:37;;;;;;;27.23;14.95;;;;;;;9.35;100.00;100634.06;4943530;29;20051;-63
2023/09/29 05:58:04;;;;;;;20.27;14.48;;;;;;;9.81;100.00;100704.38;4943428;29;20051;-61
2023/09/29 06:00:31;;;;;;;21.58;13.07;;;;;;;9.98;100.00;100716.91;4942966;29;20059;-62
2023/09/29 06:03:01;;;;;;;25.13;12.15;;;;;;;10.30;100.00;100763.72;4943462;29;20116;-62
2023/09/29 06:05:29;;;;;;;24.20;12.07;;;;;;;10.65;100.00;100813.78;4942754;29;20056;-61
2023/09/29 06:07:56;;;;;;;25.00;12.45;;;;;;;10.82;100.00;100821.91;4943543;29;20043;-62
2023/09/29 06:10:44;;;;;;;23.98;12.55;;;;;;;10.93;100.00;100837.75;4942861;28;20508;-64
2023/09/29 06:13:10;;;;;;;21.15;11.43;;;;;;;11.18;100.00;100860.19;4944975;29;20103;-62
2023/09/29 06:15:38;;;;;;;19.17;11.25;;;;;;;11.33;100.00;100869.31;4943870;29;20063;-64
2023/09/29 06:18:05;;;;;;;23.77;10.32;;;;;;;11.32;100.00;100878.38;4943589;29;20052;-61
2023/09/29 06:20:32;;;;;;;23.40;11.15;;;;;;;11.37;100.00;100883.25;4963445;28;20051;-62
2023/09/29 06:22:59;;;;;;;20.98;11.20;;;;;;;11.33;100.00;100879.22;4962322;28;20071;-62
2023/09/29 06:25:26;;;;;;;25.60;11.13;;;;;;;11.37;100.00;100878.72;4962019;28;20051;-61
2023/09/29 06:27:52;;;;;;;22.85;12.73;;;;;;;11.29;100.00;100876.00;4962799;28;20384;-61
2023/09/29 06:30:19;;;;;;;20.15;11.38;;;;;;;11.37;100.00;100876.03;4962825;28;20118;-61
2023/09/29 06:32:46;;;;;;;19.70;11.23;;;;;;;11.29;100.00;100881.38;4962914;28;20054;-61
2023/09/29 06:35:14;;;;;;;22.80;11.30;;;;;;;11.35;100.00;100886.13;4961850;28;20047;-62
2023/09/29 06:37:41;;;;;;;18.58;11.60;;;;;;;11.48;100.00;100899.06;4961299;29;20054;-61
2023/09/29 06:40:11;;;;;;;25.27;11.40;;;;;;;11.52;100.00;100888.84;4962759;28;20048;-62
2023/09/29 06:42:38;;;;;;;24.20;11.18;;;;;;;11.51;100.00;100890.69;4961700;28;20043;-61
2023/09/29 06:45:06;;;;;;;26.52;10.75;;;;;;;11.63;100.00;100892.09;4962352;28;20051;-61
2023/09/29 06:47:33;;;;;;;16.02;10.32;;;;;;;11.85;100.00;100903.25;4961711;28;20143;-62
2023/09/29 06:50:00;;;;;;;20.63;11.68;;;;;;;12.22;100.00;100927.03;4963008;28;20051;-62
2023/09/29 06:52:27;;;;;;;22.70;11.35;;;;;;;12.53;100.00;100946.06;4961503;28;20055;-61
2023/09/29 06:54:54;;;;;;;19.70;10.57;;;;;;;12.91;100.00;100972.53;4961876;28;20110;-62
2023/09/29 06:57:20;;;;;;;19.98;10.40;;;;;;;13.22;100.00;100980.72;4962202;28;20055;-62
2023/09/29 06:59:48;;;;;;;25.60;10.43;;;;;;;13.53;100.00;100994.31;4960912;28;20102;-62
2023/09/29 07:02:14;;;;;;;13.48;9.25;;;;;;;13.81;100.00;100995.56;4960762;28;20066;-63
2023/09/29 07:04:42;;;;;;;20.90;10.07;;;;;;;14.26;100.00;101002.09;4961601;28;20047;-66
2023/09/29 07:07:08;;;;;;;26.42;10.88;;;;;;;14.51;100.00;100999.22;4961924;28;20542;-60
2023/09/29 07:09:35;;;;;;;17.73;8.98;;;;;;;14.70;100.00;101012.28;4959190;28;20062;-63
2023/09/29 07:12:01;;;;;;;24.30;8.85;;;;;;;14.98;100.00;101017.13;4960868;28;20158;-62
2023/09/29 07:14:28;;;;;;;23.33;9.05;;;;;;;15.30;100.00;101017.88;4960861;28;20043;-61
2023/09/29 07:16:55;;;;;;;13.82;8.68;;;;;;;15.68;100.00;101027.63;4961445;28;20051;-63
2023/09/29 07:19:22;;;;;;;24.67;8.68;;;;;;;15.61;100.00;101021.25;4949654;28;20568;-62
2023/09/29 07:21:49;;;;;;;21.65;9.30;;;;;;;15.80;100.00;101021.72;4945392;29;20130;-62
2023/09/29 07:24:16;;;;;;;14.50;8.38;;;;;;;15.66;100.00;101018.84;4946074;29;20052;-63
2023/09/29 07:26:43;;;;;;;16.83;8.73;;;;;;;15.89;100.00;101024.16;4946206;29;20052;-64
2023/09/29 07:29:11;;;;;;;17.52;8.13;;;;;;;16.14;100.00;101023.84;4945901;29;20051;-62
2023/09/29 07:31:38;;;;;;;15.05;7.85;;;;;;;16.13;100.00;101024.88;4945023;29;20098;-61
2023/09/29 07:34:05;;;;;;;14.52;7.32;;;;;;;16.35;100.00;101023.88;4945182;29;20055;-61
2023/09/29 07:36:33;;;;;;;18.40;7.35;;;;;;;16.35;100.00;101020.34;4946048;29;20067;-62
2023/09/29 07:39:00;;;;;;;11.40;7.68;;;;;;;17.09;100.00;101026.31;4945847;29;20421;-61
2023/09/29 07:41:26;;;;;;;12.88;7.50;;;;;;;17.41;100.00;101026.81;4945902;29;20074;-61
2023/09/29 07:43:53;;;;;;;20.70;8.13;;;;;;;17.64;100.00;101037.38;4945115;29;20043;-64
2023/09/29 07:46:19;;;;;;;13.93;7.10;;;;;;;17.75;100.00;101030.53;4945348;29;20062;-62
2023/09/29 07:48:46;;;;;;;21.73;7.10;;;;;;;18.11;100.00;101034.91;4941844;29;20052;-64
2023/09/29 07:51:13;;;;;;;14.68;7.38;;;;;;;18.37;100.00;101039.63;4933752;29;20122;-64
2023/09/29 07:53:40;;;;;;;15.27;7.47;;;;;;;18.01;100.00;101036.13;4936809;29;20047;-65
2023/09/29 07:56:07;;;;;;;12.68;6.68;;;;;;;17.80;100.00;101025.38;4936341;29;20409;-65
2023/09/29 07:58:33;;;;;;;13.30;6.60;;;;;;;17.75;100.00;101022.41;4936278;29;20067;-65
2023/09/29 08:01:00;;;;;;;11.38;6.82;;;;;;;17.80;100.00;101022.66;4936076;29;20099;-66
2023/09/29 08:03:27;;;;;;;17.25;6.72;;;;;;;17.82;100.00;101017.84;4936137;29;20048;-65
2023/09/29 08:05:54;;;;;;;13.80;6.97;;;;;;;17.85;100.00;101018.28;4936175;29;20043;-64
2023/09/29 08:08:21;;;;;;;14.77;7.03;;;;;;;18.34;100.00;101016.41;4935903;29;20079;-67
2023/09/29 08:10:48;;;;;;;12.90;5.68;;;;;;;18.67;100.00;101021.09;4935672;29;20143;-67
2023/09/29 08:13:16;;;;;;;11.32;6.30;;;;;;;18.43;100.00;101017.06;4935923;29;20052;-65
2023/09/29 08:15:43;;;;;;;9.52;6.15;;;;;;;18.09;100.00;101011.50;4935611;29;20059;-65
2023/09/29 08:18:12;;;;;;;14.55;6.88;;;;;;;18.05;100.00;101006.69;4935785;29;20052;-65
2023/09/29 08:20:39;;;;;;;18.52;7.00;;;;;;;17.77;100.00;101013.03;4936507;29;20044;-66
2023/09/29 08:23:06;;;;;;;10.93;6.15;;;;;;;17.57;100.00;100996.63;4935520;29;20395;-66
2023/09/29 08:25:33;;;;;;;14.68;5.95;;;;;;;17.71;100.00;101007.56;4936064;29;20059;-65
2023/09/29 08:28:02;;;;;;;13.70;5.70;;;;;;;17.89;100.00;101007.00;4934805;29;20468;-66
2023/09/29 08:30:30;;;;;;;13.07;6.40;;;;;;;18.08;100.00;101009.81;4935988;28;20087;-65
2023/09/29 08:32:58;;;;;;;16.90;6.75;;;;;;;17.90;100.00;101006.00;4935659;29;20044;-65
2023/09/29 08:35:40;;;;;;;18.90;6.57;;;;;;;17.60;100.00;101007.09;4935533;29;20055;-66
2023/09/29 08:38:06;;;;;;;26.27;7.20;;;;;;;17.60;100.00;101008.97;4935689;29;20047;-65
2023/09/29 08:40:39;;;;;;;17.75;6.00;;;;;;;17.66;100.00;101012.75;4934424;29;20051;-65
2023/09/29 08:43:06;;;;;;;17.10;6.07;;;;;;;17.60;100.00;101019.81;4934747;29;20044;-66
2023/09/29 08:45:34;;;;;;;18.23;6.78;;;;;;;17.81;100.00;101006.16;4935795;29;20098;-66
2023/09/29 08:48:03;;;;;;;18.52;5.85;;;;;;;17.73;100.00;101005.50;4934381;29;20564;-66
2023/09/29 08:50:30;;;;;;;11.05;5.97;;;;;;;17.72;100.00;101003.84;4935739;29;20130;-66
2023/09/29 08:52:59;;;;;;;21.05;7.45;;;;;;;17.77;100.00;101009.47;4935873;29;20051;-65
2023/09/29 08:55:26;;;;;;;10.30;5.68;;;;;;;17.64;100.00;101004.81;4935575;29;20048;-65
2023/09/29 08:57:54;;;;;;;18.50;6.05;;;;;;;17.59;100.00;101010.84;4935614;29;20147;-66
2023/09/29 09:00:23;;;;;;;14.75;6.07;;;;;;;17.84;100.00;101027.47;4935683;29;20051;-65
2023/09/29 09:02:50;;;;;;;13.75;6.07;;;;;;;18.12;100.00;101033.84;4935131;29;20044;-66
2023/09/29 09:05:20;;;;;;;12.02;5.35;;;;;;;18.27;100.00;101040.88;4934293;29;20051;-65
2023/09/29 09:07:47;;;;;;;18.67;5.70;;;;;;;18.29;100.00;101043.34;4934924;28;20047;-65
2023/09/29 09:10:13;;;;;;;12.27;5.43;;;;;;;18.41;100.00;101033.59;4935825;29;20051;-64
2023/09/29 09:12:58;;;;;;;15.45;5.70;;;;;;;18.37;100.00;101026.88;4934128;29;20139;-65
2023/09/29 09:15:25;;;;;;;14.48;6.80;;;;;;;18.27;100.00;101034.56;4935573;29;20500;-66
2023/09/29 09:17:52;;;;;;;17.45;10.98;;;;;;;18.21;100.00;101035.41;4934428;29;20055;-65
2023/09/29 09:20:20;;;;;;;21.20;7.88;;;;;;;18.17;100.00;101031.38;4935414;29;20056;-65
2023/09/29 09:23:02;;;;;;;12.13;6.75;;;;;;;17.98;100.00;101032.97;4934932;29;20055;-65
2023/09/29 09:25:31;;;;;;;20.00;5.68;;;;;;;17.94;100.00;101037.97;4934915;29;20159;-64
2023/09/29 09:27:58;;;;;;;21.35;6.25;;;;;;;17.76;100.00;101026.81;4935517;29;20106;-66
2023/09/29 09:30:25;;;;;;;12.18;5.70;;;;;;;17.57;100.00;101033.78;4933286;29;20098;-65
2023/09/29 09:32:52;;;;;;;13.75;5.55;;;;;;;17.69;100.00;101036.78;4935632;29;20058;-65
2023/09/29 09:35:27;;;;;;;18.60;6.00;;;;;;;17.67;100.00;101033.41;4934909;29;20064;-66
2023/09/29 09:37:57;;;;;;;14.90;5.93;;;;;;;17.61;100.00;101037.75;4935254;29;20051;-64
2023/09/29 09:40:25;;;;;;;12.15;6.05;;;;;;;17.58;100.00;101035.47;4935943;29;20112;-62
2023/09/29 09:42:54;;;;;;;17.52;5.78;;;;;;;17.70;100.00;101023.00;4944847;29;20087;-63
2023/09/29 09:45:26;;;;;;;17.63;6.60;;;;;;;17.73;100.00;101029.91;4946508;29;20051;-62
2023/09/29 09:47:59;;;;;;;13.07;5.50;;;;;;;17.65;100.00;101035.47;4946677;29;20472;-63
2023/09/29 09:50:30;;;;;;;15.63;5.40;;;;;;;17.67;100.00;101041.56;4946189;29;20076;-62
2023/09/29 09:52:59;;;;;;;14.25;5.90;;;;;;;17.90;100.00;101035.84;4946036;29;20057;-63
2023/09/29 09:55:39;;;;;;;9.15;6.03;;;;;;;18.04;100.00;101033.00;4945311;29;20056;-62
2023/09/29 09:58:09;;;;;;;12.98;5.80;;;;;;;17.99;100.00;101035.47;4946011;29;20463;-63
2023/09/29 10:00:39;;;;;;;14.50;5.82;;;;;;;18.00;100.00;101026.31;4946563;29;20053;-62
2023/09/29 10:03:15;;;;;;;14.38;5.82;;;;;;;18.06;100.00;101027.34;4946275;29;20048;-62
2023/09/29 10:05:52;;;;;;;10.15;5.50;;;;;;;18.70;100.00;101035.09;4946468;29;20048;-66
2023/09/29 10:08:31;;;;;;;17.75;5.88;;;;;;;19.22;100.00;101029.94;4945244;29;20051;-64
2023/09/29 10:11:10;;;;;;;11.13;5.38;;;;;;;19.10;100.00;101020.72;4946612;29;20040;-63
2023/09/29 10:13:40;;;;;;;19.63;5.53;;;;;;;18.92;100.00;101030.34;4945499;29;20051;-63
2023/09/29 10:16:06;;;;;;;17.73;5.32;;;;;;;19.00;100.00;101032.88;4946845;28;20428;-63
2023/09/29 10:18:33;;;;;;;11.27;5.55;;;;;;;19.15;100.00;101037.28;4951358;28;20051;-62
2023/09/29 10:21:09;;;;;;;19.13;6.35;;;;;;;19.24;100.00;101031.41;4965676;28;20051;-64
2023/09/29 10:23:46;;;;;;;18.75;6.20;;;;;;;19.34;100.00;101025.53;4966123;28;20107;-63
2023/09/29 10:26:13;;;;;;;8.82;5.38;;;;;;;19.29;100.00;101030.78;4966333;28;20120;-66
2023/09/29 10:28:41;;;;;;;13.25;5.20;;;;;;;19.11;100.00;101017.81;4965349;29;20083;-63
2023/09/29 10:31:16;;;;;;;17.65;5.47;;;;;;;19.17;100.00;101021.56;4965685;28;20100;-62
2023/09/29 10:33:54;;;;;;;16.08;5.13;;;;;;;18.81;100.00;101028.22;4964676;28;20050;-64
2023/09/29 10:36:28;;;;;;;14.82;5.25;;;;;;;18.99;100.00;101031.19;4966228;28;20051;-63
2023/09/29 10:38:57;;;;;;;20.23;5.68;;;;;;;19.00;100.00;101030.16;4965318;28;20047;-63
2023/09/29 10:41:25;;;;;;;18.95;5.65;;;;;;;18.91;100.00;101034.09;4966135;28;20032;-65
2023/09/29 10:44:01;;;;;;;13.50;6.03;;;;;;;19.06;100.00;101035.78;4966137;28;20078;-62
2023/09/29 10:46:29;;;;;;;18.40;5.45;;;;;;;19.13;100.00;101040.19;4964439;28;20373;-61
2023/09/29 10:48:56;;;;;;;8.77;5.40;;;;;;;19.52;100.00;101037.66;4980299;28;20047;-62
2023/09/29 10:51:28;;;;;;;18.23;5.25;;;;;;;19.51;100.00;101025.94;4966589;28;20079;-62
2023/09/29 10:53:56;;;;;;;12.90;4.80;;;;;;;19.54;100.00;101030.13;4966135;28;20047;-63
2023/09/29 10:56:25;;;;;;;12.63;5.10;;;;;;;19.57;100.00;101035.13;4967604;28;20422;-63
2023/09/29 10:58:53;;;;;;;8.90;5.07;;;;;;;19.59;100.00;101031.16;4968829;28;20364;-63
2023/09/29 11:01:33;;;;;;;13.27;5.03;;;;;;;19.46;100.00;101020.28;4970193;28;20051;-62
2023/09/29 11:04:07;;;;;;;19.90;6.82;;;;;;;19.35;100.00;101026.38;4970225;28;20043;-63
2023/09/29 11:06:49;;;;;;;13.23;5.40;;;;;;;19.26;100.00;101023.03;4969836;28;20115;-64
2023/09/29 11:09:19;;;;;;;15.55;6.03;;;;;;;19.19;100.00;101027.66;4970789;28;20071;-62
2023/09/29 11:11:48;;;;;;;9.88;5.03;;;;;;;19.41;100.00;101015.47;4970325;28;20051;-62
2023/09/29 11:14:15;;;;;;;17.45;5.65;;;;;;;19.38;100.00;101015.91;4971153;28;20051;-63
2023/09/29 11:16:41;;;;;;;12.68;4.97;;;;;;;19.44;100.00;101006.88;4971013;28;20047;-63